createdAt,value
2022-07-29T00:01:19.198Z,12.90
2022-07-29T00:03:47.797Z,12.80
2022-07-29T00:06:16.133Z,12.90
2022-07-29T00:08:44.019Z,12.90
2022-07-29T00:11:12.006Z,12.90
2022-07-29T00:13:40.235Z,13.00
2022-07-29T00:16:08.220Z,13.10
2022-07-29T00:18:37.729Z,13.20
2022-07-29T00:21:05.705Z,13.20
2022-07-29T00:23:36.699Z,13.20
2022-07-29T00:26:05.140Z,13.20
2022-07-29T00:28:33.243Z,13.20
2022-07-29T00:31:01.294Z,13.20
2022-07-29T00:33:31.063Z,13.30
2022-07-29T00:35:59.443Z,13.30
2022-07-29T00:38:27.646Z,13.30
2022-07-29T00:40:55.779Z,13.30
2022-07-29T00:43:23.705Z,13.30
2022-07-29T00:45:51.692Z,13.30
2022-07-29T00:48:19.731Z,13.20
2022-07-29T00:50:47.752Z,13.20
2022-07-29T00:53:17.150Z,13.30
2022-07-29T00:55:45.167Z,13.30
2022-07-29T00:58:14.320Z,13.30
2022-07-29T01:00:45.664Z,13.30
2022-07-29T01:03:14.581Z,13.30
2022-07-29T01:05:50.553Z,13.30
2022-07-29T01:08:22.219Z,13.20
2022-07-29T01:10:51.283Z,13.20
2022-07-29T01:13:19.962Z,13.30
2022-07-29T01:15:54.996Z,13.30
2022-07-29T01:18:41.045Z,13.40
2022-07-29T01:21:38.742Z,13.40
2022-07-29T01:24:43.994Z,13.40
2022-07-29T01:27:38.170Z,13.40
2022-07-29T01:30:13.855Z,13.40
2022-07-29T01:32:50.882Z,13.40
2022-07-29T01:35:25.532Z,13.50
2022-07-29T01:38:02.935Z,13.50
2022-07-29T01:40:37.359Z,13.50
2022-07-29T01:43:20.388Z,13.60
2022-07-29T01:46:02.582Z,13.60
2022-07-29T01:48:39.239Z,13.60
2022-07-29T01:51:14.914Z,13.60
2022-07-29T01:53:48.566Z,13.70
2022-07-29T01:56:23.304Z,13.70
2022-07-29T01:59:00.082Z,13.70
2022-07-29T02:01:37.702Z,13.70
2022-07-29T02:04:29.634Z,13.80
2022-07-29T02:07:06.538Z,13.80
2022-07-29T02:09:39.931Z,13.80
2022-07-29T02:12:12.175Z,13.80
2022-07-29T02:14:45.678Z,13.80
2022-07-29T02:17:26.644Z,13.80
2022-07-29T02:20:05.698Z,13.90
2022-07-29T02:22:42.859Z,13.90
2022-07-29T02:25:15.405Z,14.00
2022-07-29T02:27:47.718Z,14.00
2022-07-29T02:30:19.085Z,13.90
2022-07-29T02:32:57.475Z,14.00
2022-07-29T02:35:34.693Z,14.00
2022-07-29T02:38:23.020Z,14.00
2022-07-29T02:40:55.265Z,14.00
2022-07-29T02:43:30.123Z,14.00
2022-07-29T02:46:02.797Z,14.10
2022-07-29T02:48:45.531Z,14.00
2022-07-29T02:51:43.520Z,14.10
2022-07-29T02:54:28.772Z,14.10
2022-07-29T02:57:00.572Z,14.10
2022-07-29T02:59:33.825Z,14.10
2022-07-29T03:02:05.305Z,14.10
2022-07-29T03:04:38.980Z,14.10
2022-07-29T03:07:11.859Z,14.10
2022-07-29T03:09:43.324Z,14.10
2022-07-29T03:12:14.727Z,14.10
2022-07-29T03:14:44.577Z,14.10
2022-07-29T03:17:17.151Z,14.10
2022-07-29T03:19:46.929Z,14.10
2022-07-29T03:22:15.726Z,14.10
2022-07-29T03:24:47.382Z,14.20
2022-07-29T03:27:15.689Z,14.00
2022-07-29T03:29:49.734Z,13.90
2022-07-29T03:32:23.796Z,14.00
2022-07-29T03:34:54.786Z,14.00
2022-07-29T03:37:22.829Z,13.90
2022-07-29T03:39:53.081Z,13.90
2022-07-29T03:42:23.102Z,14.00
2022-07-29T03:44:53.691Z,13.90
2022-07-29T03:47:49.969Z,13.90
2022-07-29T03:50:18.178Z,14.00
2022-07-29T03:52:46.205Z,14.10
2022-07-29T03:55:14.803Z,14.00
2022-07-29T03:57:43.760Z,14.10
2022-07-29T04:00:12.421Z,14.20
2022-07-29T04:02:40.985Z,14.10
2022-07-29T04:05:14.871Z,14.20
2022-07-29T04:07:45.858Z,14.20
2022-07-29T04:10:14.048Z,14.20
2022-07-29T04:12:42.531Z,14.30
2022-07-29T04:15:11.437Z,14.20
2022-07-29T04:17:39.469Z,14.30
2022-07-29T04:20:08.552Z,14.30
2022-07-29T04:22:36.548Z,14.40
2022-07-29T04:25:06.552Z,14.40
2022-07-29T04:27:34.630Z,14.40
2022-07-29T04:30:02.761Z,14.50
2022-07-29T04:32:30.867Z,14.50
2022-07-29T04:34:58.853Z,14.60
2022-07-29T04:37:26.929Z,14.60
2022-07-29T04:39:55.132Z,14.70
2022-07-29T04:42:27.399Z,14.70
2022-07-29T04:44:56.079Z,14.80
2022-07-29T04:47:24.194Z,14.80
2022-07-29T04:49:52.503Z,14.80
2022-07-29T04:52:20.693Z,15.00
2022-07-29T04:54:49.065Z,15.00
2022-07-29T04:57:17.401Z,15.00
2022-07-29T04:59:46.841Z,15.10
2022-07-29T05:02:14.934Z,15.20
2022-07-29T05:04:43.123Z,15.20
2022-07-29T05:07:11.362Z,15.30
2022-07-29T05:09:39.405Z,15.20
2022-07-29T05:12:14.914Z,15.30
2022-07-29T05:14:43.059Z,15.30
2022-07-29T05:17:12.389Z,15.30
2022-07-29T05:19:40.272Z,15.30
2022-07-29T05:22:08.268Z,15.40
2022-07-29T05:24:36.282Z,15.40
2022-07-29T05:27:04.349Z,15.50
2022-07-29T05:29:44.153Z,15.60
2022-07-29T05:32:14.936Z,15.80
2022-07-29T05:34:50.797Z,15.80
2022-07-29T05:37:20.494Z,16.00
2022-07-29T05:39:56.427Z,16.10
2022-07-29T05:42:25.496Z,16.10
2022-07-29T05:44:53.704Z,16.20
2022-07-29T05:47:23.327Z,16.30
2022-07-29T05:49:51.623Z,16.30
2022-07-29T05:52:19.714Z,16.30
2022-07-29T05:54:47.814Z,16.30
2022-07-29T05:57:18.795Z,16.30
2022-07-29T05:59:47.350Z,16.40
2022-07-29T06:02:15.432Z,16.40
2022-07-29T06:04:45.394Z,16.50
2022-07-29T06:07:13.333Z,16.60
2022-07-29T06:09:41.274Z,16.60
2022-07-29T06:12:09.838Z,16.70
2022-07-29T06:14:38.934Z,16.80
2022-07-29T06:17:07.419Z,16.90
2022-07-29T06:19:36.455Z,17.00
2022-07-29T06:22:05.999Z,17.10
2022-07-29T06:24:34.091Z,17.10
2022-07-29T06:27:01.903Z,17.30
2022-07-29T06:29:29.854Z,17.40
2022-07-29T06:31:58.220Z,17.50
2022-07-29T06:34:27.205Z,17.70
2022-07-29T06:36:55.345Z,17.80
2022-07-29T06:39:25.549Z,18.00
2022-07-29T06:41:53.594Z,18.30
2022-07-29T06:44:21.497Z,18.50
2022-07-29T06:46:51.005Z,18.60
2022-07-29T06:49:19.252Z,18.70
2022-07-29T06:51:47.661Z,18.60
2022-07-29T06:54:15.873Z,18.60
2022-07-29T06:56:45.226Z,18.60
2022-07-29T06:59:14.121Z,18.70
2022-07-29T07:01:43.995Z,18.80
2022-07-29T07:04:13.241Z,19.00
2022-07-29T07:06:42.247Z,19.10
2022-07-29T07:09:10.314Z,19.10
2022-07-29T07:11:38.473Z,19.10
2022-07-29T07:14:08.026Z,19.20
2022-07-29T07:16:36.042Z,19.20
2022-07-29T07:19:04.269Z,19.10
2022-07-29T07:21:32.309Z,19.10
2022-07-29T07:24:00.597Z,19.00
2022-07-29T07:26:29.072Z,19.10
2022-07-29T07:28:57.165Z,19.10
2022-07-29T07:31:26.749Z,19.20
2022-07-29T07:33:55.313Z,19.40
2022-07-29T07:36:24.206Z,19.50
2022-07-29T07:38:52.184Z,19.60
2022-07-29T07:41:20.323Z,19.60
2022-07-29T07:43:48.369Z,19.80
2022-07-29T07:46:17.000Z,20.00
2022-07-29T07:48:46.936Z,20.20
2022-07-29T07:51:14.903Z,20.50
2022-07-29T07:53:43.013Z,20.80
2022-07-29T07:56:12.536Z,21.10
2022-07-29T07:58:41.664Z,21.40
2022-07-29T08:01:09.814Z,21.70
2022-07-29T08:03:38.571Z,22.00
2022-07-29T08:06:08.062Z,22.10
2022-07-29T08:08:36.105Z,22.20
2022-07-29T08:11:09.123Z,22.20
2022-07-29T08:13:38.860Z,22.20
2022-07-29T08:16:13.770Z,22.30
2022-07-29T08:18:43.161Z,22.40
2022-07-29T08:21:14.829Z,22.60
2022-07-29T08:23:52.754Z,22.70
2022-07-29T08:26:27.850Z,22.90
2022-07-29T08:28:55.919Z,23.10
2022-07-29T08:31:24.000Z,23.20
2022-07-29T08:33:52.470Z,23.30
2022-07-29T08:36:22.971Z,23.50
2022-07-29T08:38:52.044Z,23.60
2022-07-29T08:41:21.098Z,23.70
2022-07-29T08:43:49.883Z,23.70
2022-07-29T08:46:19.106Z,23.90
2022-07-29T08:48:48.156Z,24.00
2022-07-29T08:51:17.882Z,24.10
2022-07-29T08:53:49.673Z,24.10
2022-07-29T08:56:20.076Z,23.90
2022-07-29T08:58:52.057Z,23.70
2022-07-29T09:01:36.393Z,23.60
2022-07-29T09:04:15.162Z,23.50
2022-07-29T09:06:46.915Z,23.50
2022-07-29T09:09:17.519Z,23.50
2022-07-29T09:11:46.537Z,23.50
2022-07-29T09:14:15.482Z,23.70
2022-07-29T09:16:55.223Z,23.70
2022-07-29T09:19:29.383Z,23.90
2022-07-29T09:22:03.605Z,23.90
2022-07-29T09:24:44.876Z,24.10
2022-07-29T09:27:23.245Z,24.30
2022-07-29T09:30:01.969Z,24.50
2022-07-29T09:32:30.721Z,24.80
2022-07-29T09:35:21.716Z,25.10
2022-07-29T09:37:50.562Z,25.30
2022-07-29T09:40:21.435Z,25.30
2022-07-29T09:42:51.191Z,25.50
2022-07-29T09:45:30.749Z,25.60
2022-07-29T09:48:01.407Z,25.70
2022-07-29T09:50:41.324Z,25.90
2022-07-29T09:53:11.121Z,25.90
2022-07-29T09:55:51.674Z,26.00
2022-07-29T09:58:21.026Z,26.20
2022-07-29T10:00:50.802Z,26.30
2022-07-29T10:03:19.692Z,26.40
2022-07-29T10:05:51.725Z,26.40
2022-07-29T10:08:27.376Z,26.50
2022-07-29T10:11:11.432Z,26.40
2022-07-29T10:13:40.048Z,26.40
2022-07-29T10:16:09.497Z,26.40
2022-07-29T10:18:39.676Z,26.40
2022-07-29T10:21:08.676Z,26.30
2022-07-29T10:23:46.437Z,26.20
2022-07-29T10:26:18.638Z,26.10
2022-07-29T10:28:46.730Z,26.10
2022-07-29T10:31:33.410Z,26.10
2022-07-29T10:34:10.021Z,26.20
2022-07-29T10:36:51.626Z,26.30
2022-07-29T10:39:41.739Z,26.50
2022-07-29T10:42:20.416Z,26.60
2022-07-29T10:45:01.690Z,26.60
2022-07-29T10:47:29.867Z,26.60
2022-07-29T10:50:01.418Z,26.70
2022-07-29T10:52:58.006Z,26.60
2022-07-29T10:55:37.798Z,26.50
2022-07-29T10:58:21.415Z,26.40
2022-07-29T11:00:50.707Z,26.50
2022-07-29T11:07:09.065Z,26.80
2022-07-29T11:09:38.504Z,26.80
2022-07-29T11:12:30.844Z,26.90
2022-07-29T11:15:02.561Z,26.80
2022-07-29T11:17:37.568Z,26.90
2022-07-29T11:20:39.133Z,26.90
2022-07-29T11:23:33.895Z,26.80
2022-07-29T11:26:23.081Z,26.80
2022-07-29T11:28:56.017Z,26.70
2022-07-29T11:31:42.395Z,26.70
2022-07-29T11:34:22.599Z,26.70
2022-07-29T11:37:20.044Z,26.70
2022-07-29T11:40:20.084Z,26.70
2022-07-29T11:42:53.066Z,26.70
2022-07-29T11:45:47.264Z,26.70
2022-07-29T11:48:28.694Z,26.70
2022-07-29T11:50:59.227Z,26.90
2022-07-29T11:53:29.282Z,26.90
2022-07-29T11:56:02.727Z,26.90
2022-07-29T11:58:32.059Z,27.00
2022-07-29T12:01:04.589Z,27.10
2022-07-29T12:03:36.802Z,27.20
2022-07-29T12:06:13.080Z,27.30
2022-07-29T12:08:43.853Z,27.40
2022-07-29T12:11:20.444Z,27.40
2022-07-29T12:13:49.557Z,27.60
2022-07-29T12:16:25.945Z,27.80
2022-07-29T12:19:00.180Z,28.00
2022-07-29T12:21:29.481Z,28.10
2022-07-29T12:24:02.085Z,28.20
2022-07-29T12:26:35.031Z,28.20
2022-07-29T12:29:11.322Z,28.20
2022-07-29T12:31:47.400Z,28.00
2022-07-29T12:34:18.525Z,28.20
2022-07-29T12:36:46.655Z,28.40
2022-07-29T12:39:14.872Z,28.40
2022-07-29T12:41:43.006Z,28.40
2022-07-29T12:44:11.362Z,28.30
2022-07-29T12:46:39.740Z,28.10
2022-07-29T12:49:07.927Z,28.00
2022-07-29T12:51:39.410Z,28.10
2022-07-29T12:54:11.409Z,28.30
2022-07-29T12:56:44.378Z,28.40
2022-07-29T12:59:18.646Z,28.30
2022-07-29T13:01:49.058Z,28.10
2022-07-29T13:04:28.001Z,28.20
2022-07-29T13:07:04.710Z,28.40
2022-07-29T13:09:40.879Z,28.50
2022-07-29T13:12:11.203Z,28.70
2022-07-29T13:14:42.105Z,29.00
2022-07-29T13:17:11.938Z,29.00
2022-07-29T13:19:42.745Z,28.80
2022-07-29T13:22:13.271Z,28.80
2022-07-29T13:24:49.259Z,29.00
2022-07-29T13:27:18.277Z,29.20
2022-07-29T13:29:46.214Z,29.50
2022-07-29T13:32:14.593Z,29.60
2022-07-29T13:34:42.847Z,29.50
2022-07-29T13:37:12.538Z,29.60
2022-07-29T13:39:40.924Z,29.40
2022-07-29T13:42:11.119Z,29.20
2022-07-29T13:44:39.415Z,29.10
2022-07-29T13:47:07.733Z,29.00
2022-07-29T13:49:36.281Z,28.70
2022-07-29T13:52:08.351Z,28.60
2022-07-29T13:54:42.047Z,28.70
2022-07-29T13:57:11.738Z,29.00
2022-07-29T13:59:40.496Z,29.20
2022-07-29T14:02:08.822Z,29.70
2022-07-29T14:04:37.082Z,29.80
2022-07-29T14:07:08.514Z,30.00
2022-07-29T14:09:41.439Z,30.00
2022-07-29T14:12:10.767Z,29.90
2022-07-29T14:14:38.786Z,29.70
2022-07-29T14:17:08.177Z,29.60
2022-07-29T14:19:39.226Z,29.40
2022-07-29T14:22:09.536Z,29.40
2022-07-29T14:24:40.265Z,29.40
2022-07-29T14:30:18.517Z,29.30
2022-07-29T14:32:46.382Z,29.10
2022-07-29T14:35:14.656Z,28.90
2022-07-29T14:37:42.787Z,28.80
2022-07-29T14:40:13.148Z,28.80
2022-07-29T14:42:41.418Z,28.60
2022-07-29T14:45:11.151Z,28.60
2022-07-29T14:47:39.547Z,28.70
2022-07-29T14:50:09.110Z,28.80
2022-07-29T14:52:37.405Z,29.00
2022-07-29T14:55:06.230Z,29.10
2022-07-29T14:57:49.310Z,29.10
2022-07-29T15:00:17.558Z,29.40
2022-07-29T15:03:01.259Z,29.50
2022-07-29T15:05:30.404Z,29.60
2022-07-29T15:07:58.583Z,29.50
2022-07-29T15:10:27.214Z,29.60
2022-07-29T15:12:56.611Z,29.70
2022-07-29T15:15:26.020Z,29.50
2022-07-29T15:17:54.017Z,29.20
2022-07-29T15:20:22.491Z,28.90
2022-07-29T15:22:50.436Z,28.60
2022-07-29T15:25:18.390Z,28.50
2022-07-29T15:27:49.718Z,28.30
2022-07-29T15:30:32.503Z,28.30
2022-07-29T15:33:01.309Z,28.40
2022-07-29T15:35:29.222Z,28.40
2022-07-29T15:37:57.180Z,28.50
2022-07-29T15:40:25.210Z,28.50
2022-07-29T15:42:53.537Z,28.50
2022-07-29T15:45:23.007Z,28.50
2022-07-29T15:47:50.149Z,28.60
2022-07-29T15:50:18.873Z,28.50
2022-07-29T15:52:47.027Z,28.30
2022-07-29T15:55:16.436Z,28.20
2022-07-29T15:57:44.401Z,28.00
2022-07-29T16:00:13.766Z,27.90
2022-07-29T16:02:43.082Z,27.60
2022-07-29T16:05:11.507Z,27.50
2022-07-29T16:07:39.451Z,27.40
2022-07-29T16:10:07.993Z,27.40
2022-07-29T16:12:36.053Z,27.40
2022-07-29T16:15:09.480Z,27.40
2022-07-29T16:17:38.510Z,27.30
2022-07-29T16:20:09.207Z,27.30
2022-07-29T16:22:38.765Z,27.30
2022-07-29T16:25:07.875Z,27.30
2022-07-29T16:27:37.884Z,27.30
2022-07-29T16:30:08.248Z,27.40
2022-07-29T16:32:36.465Z,27.30
2022-07-29T16:35:05.429Z,27.30
2022-07-29T16:37:36.654Z,27.30
2022-07-29T16:40:06.261Z,27.20
2022-07-29T16:42:46.728Z,27.20
2022-07-29T16:45:15.632Z,27.10
2022-07-29T16:47:43.629Z,27.10
2022-07-29T16:50:12.558Z,27.00
2022-07-29T16:52:42.020Z,26.90
2022-07-29T16:55:10.178Z,26.90
2022-07-29T16:57:38.295Z,26.90
2022-07-29T17:00:07.935Z,27.00
2022-07-29T17:02:35.918Z,27.00
2022-07-29T17:05:04.019Z,27.00
2022-07-29T17:07:32.217Z,27.00
2022-07-29T17:10:05.051Z,27.10
2022-07-29T17:12:37.392Z,27.10
2022-07-29T17:15:06.239Z,27.20
2022-07-29T17:17:39.560Z,27.20
2022-07-29T17:20:22.673Z,27.20
2022-07-29T17:22:50.613Z,27.20
2022-07-29T17:25:20.619Z,27.10
2022-07-29T17:27:50.734Z,27.00
2022-07-29T17:30:19.187Z,27.00
2022-07-29T17:32:47.375Z,26.90
2022-07-29T17:35:44.739Z,26.80
2022-07-29T17:38:12.754Z,26.70
2022-07-29T17:40:42.086Z,26.60
2022-07-29T17:43:10.344Z,26.50
2022-07-29T17:45:49.901Z,26.50
2022-07-29T17:48:18.717Z,26.40
2022-07-29T17:50:46.832Z,26.30
2022-07-29T17:53:15.974Z,26.20
2022-07-29T17:55:46.620Z,26.20
2022-07-29T17:58:14.700Z,26.10
2022-07-29T18:00:43.476Z,26.00
2022-07-29T18:03:12.495Z,25.90
2022-07-29T18:05:40.640Z,25.90
2022-07-29T18:08:08.625Z,25.70
2022-07-29T18:10:37.118Z,25.70
2022-07-29T18:13:06.579Z,25.60
2022-07-29T18:15:34.806Z,25.40
2022-07-29T18:18:02.967Z,25.40
2022-07-29T18:20:31.156Z,25.40
2022-07-29T18:22:59.437Z,25.30
2022-07-29T18:25:28.983Z,25.20
2022-07-29T18:28:00.463Z,25.10
2022-07-29T18:30:30.864Z,25.00
2022-07-29T18:33:20.100Z,24.90
2022-07-29T18:35:47.995Z,24.70
2022-07-29T18:38:16.064Z,24.60
2022-07-29T18:40:45.924Z,24.50
2022-07-29T18:43:14.428Z,24.40
2022-07-29T18:45:43.930Z,24.30
2022-07-29T18:48:13.114Z,24.20
2022-07-29T18:50:42.164Z,24.20
2022-07-29T18:53:10.307Z,24.10
2022-07-29T18:55:38.127Z,24.10
2022-07-29T18:58:06.077Z,24.00
2022-07-29T19:00:34.054Z,24.00
2022-07-29T19:03:04.302Z,23.90
2022-07-29T19:05:32.673Z,23.80
2022-07-29T19:08:00.886Z,23.60
2022-07-29T19:10:29.102Z,23.50
2022-07-29T19:12:57.880Z,23.40
2022-07-29T19:15:26.384Z,23.30
2022-07-29T19:17:59.018Z,23.20
2022-07-29T19:20:30.408Z,23.10
2022-07-29T19:22:58.671Z,23.00
2022-07-29T19:25:26.717Z,22.90
2022-07-29T19:27:54.965Z,22.90
2022-07-29T19:30:23.011Z,22.80
2022-07-29T19:32:51.095Z,22.90
2022-07-29T19:35:27.960Z,22.80
2022-07-29T19:37:58.811Z,22.80
2022-07-29T19:40:27.862Z,22.80
2022-07-29T19:42:56.586Z,22.70
2022-07-29T19:45:25.933Z,22.60
2022-07-29T19:47:59.065Z,22.50
2022-07-29T19:50:29.744Z,22.50
2022-07-29T19:52:59.698Z,22.50
2022-07-29T19:55:28.150Z,22.40
2022-07-29T19:57:56.925Z,22.40
2022-07-29T20:00:26.035Z,22.40
2022-07-29T20:02:54.287Z,22.30
2022-07-29T20:05:27.898Z,22.30
2022-07-29T20:07:56.633Z,22.30
2022-07-29T20:10:26.708Z,22.30
2022-07-29T20:12:55.398Z,22.30
2022-07-29T20:15:23.694Z,22.40
2022-07-29T20:17:56.961Z,22.40
2022-07-29T20:20:26.595Z,22.30
2022-07-29T20:22:54.911Z,22.20
2022-07-29T20:25:23.355Z,22.20
2022-07-29T20:27:54.359Z,22.10
2022-07-29T20:30:23.491Z,22.10
2022-07-29T20:32:52.007Z,22.00
2022-07-29T20:35:22.349Z,22.00
2022-07-29T20:37:55.838Z,22.00
2022-07-29T20:40:25.473Z,21.90
2022-07-29T20:42:55.115Z,21.90
2022-07-29T20:45:24.010Z,21.90
2022-07-29T20:47:52.885Z,21.80
2022-07-29T20:50:23.962Z,21.80
2022-07-29T20:52:52.928Z,21.70
2022-07-29T20:55:20.994Z,21.70
2022-07-29T20:57:49.048Z,21.70
2022-07-29T21:00:18.885Z,21.60
2022-07-29T21:02:47.538Z,21.60
2022-07-29T21:05:15.956Z,21.60
2022-07-29T21:07:43.896Z,21.60
2022-07-29T21:10:12.263Z,21.60
2022-07-29T21:12:40.298Z,21.50
2022-07-29T21:15:13.515Z,21.50
2022-07-29T21:17:47.740Z,21.50
2022-07-29T21:20:17.579Z,21.40
2022-07-29T21:22:46.373Z,21.40
2022-07-29T21:25:14.440Z,21.40
2022-07-29T21:28:00.231Z,21.40
2022-07-29T21:30:28.165Z,21.30
2022-07-29T21:32:57.771Z,21.30
2022-07-29T21:35:35.606Z,21.20
2022-07-29T21:38:16.448Z,21.20
2022-07-29T21:40:44.731Z,21.20
2022-07-29T21:43:12.830Z,21.20
2022-07-29T21:45:41.949Z,21.20
2022-07-29T21:48:11.295Z,21.10
2022-07-29T21:50:39.454Z,21.10
2022-07-29T21:53:07.397Z,21.00
2022-07-29T21:55:39.317Z,21.00
2022-07-29T21:58:08.328Z,20.90
2022-07-29T22:00:36.646Z,20.90
2022-07-29T22:03:06.106Z,20.90
2022-07-29T22:05:35.760Z,20.90
2022-07-29T22:08:03.989Z,20.90
2022-07-29T22:10:33.456Z,20.80
2022-07-29T22:13:02.875Z,20.80
2022-07-29T22:15:32.345Z,20.80
2022-07-29T22:18:00.766Z,20.80
2022-07-29T22:20:28.849Z,20.70
2022-07-29T22:22:58.137Z,20.80
2022-07-29T22:25:26.302Z,20.80
2022-07-29T22:27:54.450Z,20.70
2022-07-29T22:30:22.602Z,20.70
2022-07-29T22:32:51.026Z,20.70
2022-07-29T22:35:19.226Z,20.60
2022-07-29T22:37:47.417Z,20.60
2022-07-29T22:40:16.764Z,20.60
2022-07-29T22:42:44.785Z,20.60
2022-07-29T22:45:12.713Z,20.60
2022-07-29T22:47:46.513Z,20.60
2022-07-29T22:50:16.884Z,20.60
2022-07-29T22:52:45.029Z,20.60
2022-07-29T22:55:13.512Z,20.60
2022-07-29T22:57:42.890Z,20.60
2022-07-29T23:00:12.528Z,20.60
2022-07-29T23:02:41.579Z,20.60
2022-07-29T23:05:11.395Z,20.50
2022-07-29T23:07:39.891Z,20.50
2022-07-29T23:10:08.801Z,20.40
2022-07-29T23:12:36.822Z,20.40
2022-07-29T23:15:06.890Z,20.40
2022-07-29T23:17:36.301Z,20.30
2022-07-29T23:20:06.270Z,20.40
2022-07-29T23:22:34.318Z,20.30
2022-07-29T23:25:02.356Z,20.20
2022-07-29T23:27:30.800Z,20.20
2022-07-29T23:29:58.911Z,20.20
2022-07-29T23:32:28.561Z,20.10
2022-07-29T23:34:56.654Z,20.10
2022-07-29T23:37:24.704Z,20.00
2022-07-29T23:39:55.342Z,20.00
2022-07-29T23:42:23.441Z,20.00
2022-07-29T23:44:51.893Z,19.90
2022-07-29T23:47:19.895Z,19.80
2022-07-29T23:49:50.238Z,19.80
2022-07-29T23:52:18.524Z,19.80
2022-07-29T23:54:46.730Z,19.70
2022-07-29T23:57:15.042Z,19.70
2022-07-29T23:59:42.969Z,19.70
